Time;durP1;ratioP1;P1;durP2;ratioP2;P2;SDS_P1;SDS_P2;PMS_P1;PMS_P2;Temp;Humidity;BMP_temperature;BMP_pressure;BME280_temperature;BME280_humidity;BME280_pressure;Samples;Min_cycle;Max_cycle;Signal;HPM_P1;HPM_P2
2023/03/19 00:02:07;;;;;;;1.73;1.50;;;;;;;12.11;77.71;100984.69;5071672;28;20035;-85
2023/03/19 00:04:32;;;;;;;1.70;1.58;;;;;;;12.12;77.31;100989.03;5071704;28;20051;-85
2023/03/19 00:06:58;;;;;;;2.72;1.65;;;;;;;12.12;77.62;100984.59;5071215;28;20016;-85
2023/03/19 00:09:23;;;;;;;3.25;1.60;;;;;;;12.06;77.61;100982.22;5070711;28;20024;-85
2023/03/19 00:11:48;;;;;;;1.85;1.60;;;;;;;12.02;76.79;100991.22;5069616;28;20027;-85
2023/03/19 00:14:15;;;;;;;1.63;1.52;;;;;;;12.00;78.33;100987.81;5068958;28;20020;-86
2023/03/19 00:16:41;;;;;;;1.60;1.50;;;;;;;11.97;77.83;100987.94;5085566;28;20144;-85
2023/03/19 00:19:07;;;;;;;1.60;1.50;;;;;;;12.04;77.42;100986.75;5055091;28;20230;-85
2023/03/19 00:21:32;;;;;;;2.35;1.30;;;;;;;12.04;76.98;100986.75;5088981;28;20059;-85
2023/03/19 00:24:01;;;;;;;1.70;1.50;;;;;;;12.01;77.59;100989.53;5086256;28;20020;-86
2023/03/19 00:26:33;;;;;;;2.50;1.40;;;;;;;12.01;78.20;100989.53;5066327;28;20016;-85
2023/03/19 00:28:59;;;;;;;1.60;1.50;;;;;;;12.00;78.08;100991.31;5070246;28;20059;-85
2023/03/19 00:31:27;;;;;;;1.73;1.50;;;;;;;12.01;77.65;100989.53;5070136;28;20440;-86
2023/03/19 00:33:52;;;;;;;2.33;2.00;;;;;;;11.95;77.74;100979.19;5070228;28;20518;-85
2023/03/19 00:36:18;;;;;;;3.65;1.80;;;;;;;12.10;77.43;100998.84;5065345;28;20032;-85
2023/03/19 00:38:45;;;;;;;2.38;1.67;;;;;;;12.06;77.54;100986.66;5088473;28;20115;-85
2023/03/19 00:41:11;;;;;;;1.85;1.63;;;;;;;12.09;77.57;100991.84;5071571;28;20352;-85
2023/03/19 00:43:37;;;;;;;2.53;1.80;;;;;;;12.13;76.45;101002.25;5083987;28;20097;-85
2023/03/19 00:46:02;;;;;;;1.95;1.65;;;;;;;12.08;77.15;100990.13;5093137;28;20039;-85
2023/03/19 00:48:28;;;;;;;3.80;1.95;;;;;;;12.11;77.01;101006.72;5093125;28;20032;-86
2023/03/19 00:50:53;;;;;;;2.20;1.52;;;;;;;12.07;77.24;100991.88;5074956;28;20575;-85
2023/03/19 00:53:19;;;;;;;2.70;2.17;;;;;;;12.08;77.89;101000.72;5075111;28;20044;-85
2023/03/19 00:55:45;;;;;;;3.15;1.92;;;;;;;12.06;77.95;100997.28;5085787;28;20142;-85
2023/03/19 00:58:10;;;;;;;3.47;2.20;;;;;;;12.08;77.53;100998.94;5074709;28;20522;-86
2023/03/19 01:00:37;;;;;;;2.10;1.88;;;;;;;12.07;77.19;100997.19;5070169;28;20024;-85
2023/03/19 01:03:04;;;;;;;2.92;2.10;;;;;;;12.08;77.13;100996.28;5068295;28;20077;-85
2023/03/19 01:05:29;;;;;;;3.10;2.08;;;;;;;12.10;77.26;100998.84;5070545;28;20035;-85
2023/03/19 01:07:55;;;;;;;3.13;2.15;;;;;;;12.06;77.38;100997.28;5074006;28;20716;-85
2023/03/19 01:10:22;;;;;;;6.47;2.22;;;;;;;11.97;77.56;100988.78;5091668;28;20487;-85
2023/03/19 01:12:48;;;;;;;3.50;2.40;;;;;;;11.93;77.53;100987.19;5080817;28;20031;-85
2023/03/19 01:15:14;;;;;;;3.85;2.08;;;;;;;12.06;77.02;101002.56;5067009;28;20410;-85
2023/03/19 01:17:39;;;;;;;3.55;2.25;;;;;;;12.03;77.71;101002.69;5066577;28;20077;-85
2023/03/19 01:20:11;;;;;;;5.95;2.45;;;;;;;11.89;77.67;100993.56;5073838;28;20031;-86
2023/03/19 01:22:38;;;;;;;3.75;2.50;;;;;;;11.87;78.22;100995.41;5091151;28;20111;-85
2023/03/19 01:25:04;;;;;;;4.50;2.47;;;;;;;11.92;77.93;100997.88;5086700;28;20485;-86
2023/03/19 01:27:30;;;;;;;6.05;2.90;;;;;;;11.77;78.57;100977.31;5086017;28;20177;-85
2023/03/19 01:29:55;;;;;;;3.20;2.50;;;;;;;11.89;78.22;100996.22;5074215;28;20134;-86
2023/03/19 01:32:22;;;;;;;2.60;2.40;;;;;;;11.88;78.20;100989.19;5071960;28;20529;-86
2023/03/19 01:34:47;;;;;;;3.38;2.55;;;;;;;11.90;78.63;100997.09;5072990;28;20114;-86
2023/03/19 01:37:12;;;;;;;4.45;2.55;;;;;;;11.86;78.33;100982.25;5069023;28;20123;-86
2023/03/19 01:39:38;;;;;;;3.58;2.47;;;;;;;11.87;78.13;100991.91;5069644;28;20028;-85
2023/03/19 01:42:03;;;;;;;5.07;2.20;;;;;;;11.92;78.48;100992.56;5068179;28;20047;-86
2023/03/19 01:44:32;;;;;;;3.70;2.70;;;;;;;11.92;78.77;100988.13;5086805;28;20433;-86
2023/03/19 01:46:59;;;;;;;4.20;2.80;;;;;;;11.99;78.12;101000.19;5063982;28;20366;-86
2023/03/19 01:49:26;;;;;;;5.18;3.65;;;;;;;11.84;78.49;100982.28;5068290;28;20059;-86
2023/03/19 01:51:54;;;;;;;4.15;3.10;;;;;;;11.93;78.80;100988.97;5067526;28;20028;-86
2023/03/19 01:54:23;;;;;;;3.85;3.17;;;;;;;11.96;78.34;100999.47;5065947;28;20089;-86
2023/03/19 01:56:56;;;;;;;4.40;3.70;;;;;;;11.95;77.90;100984.50;5065636;28;20395;-86
2023/03/19 01:59:29;;;;;;;4.05;3.65;;;;;;;12.04;77.97;100992.03;5066523;28;20563;-86
2023/03/19 02:02:07;;;;;;;4.50;3.50;;;;;;;11.99;77.60;100986.94;5086849;28;20020;-86
2023/03/19 02:04:36;;;;;;;3.05;2.75;;;;;;;12.03;77.78;100995.63;5084506;28;20479;-86
2023/03/19 02:07:03;;;;;;;6.22;3.08;;;;;;;12.11;77.48;100995.28;5066644;28;20880;-86
2023/03/19 02:09:29;;;;;;;4.18;2.90;;;;;;;12.07;77.76;100991.88;5066248;28;20360;-86
2023/03/19 02:11:55;;;;;;;6.93;3.35;;;;;;;12.08;77.73;100984.84;5085833;28;20051;-86
2023/03/19 02:14:21;;;;;;;4.38;3.10;;;;;;;12.07;77.81;101006.94;5068435;28;20028;-85
2023/03/19 02:16:47;;;;;;;4.55;3.20;;;;;;;12.08;78.09;101000.72;5066682;28;20118;-86
2023/03/19 02:19:19;;;;;;;3.33;3.03;;;;;;;12.10;78.04;100997.06;5067433;28;20024;-86
2023/03/19 02:21:45;;;;;;;4.13;3.70;;;;;;;12.04;78.17;100988.53;5086055;28;20036;-86
2023/03/19 02:24:19;;;;;;;4.88;3.45;;;;;;;12.03;78.39;100995.63;5084159;28;20024;-86
2023/03/19 02:26:46;;;;;;;3.25;2.88;;;;;;;11.94;78.76;100998.69;5064827;28;20028;-86
2023/03/19 02:29:12;;;;;;;5.38;3.20;;;;;;;12.06;78.16;101002.56;5082967;28;20146;-86
2023/03/19 02:31:38;;;;;;;5.70;3.42;;;;;;;11.97;78.60;100988.78;5067975;28;20378;-85
2023/03/19 02:34:25;;;;;;;4.10;3.20;;;;;;;11.94;79.04;100999.53;5084075;28;20882;-86
2023/03/19 02:36:59;;;;;;;4.93;3.58;;;;;;;12.04;78.56;100999.13;5065463;28;20024;-86
2023/03/19 02:39:45;;;;;;;6.18;3.67;;;;;;;12.04;78.67;101005.28;5073640;28;20016;-86
2023/03/19 02:42:13;;;;;;;5.40;3.25;;;;;;;12.04;78.40;100999.13;5091315;28;20120;-86
2023/03/19 02:44:38;;;;;;;4.78;3.80;;;;;;;11.95;78.92;100989.78;5075622;28;20486;-86
2023/03/19 02:47:04;;;;;;;7.45;3.60;;;;;;;11.92;78.44;100985.47;5080920;28;20065;-85
2023/03/19 02:49:29;;;;;;;6.03;4.40;;;;;;;11.88;78.42;100983.03;5083359;28;20027;-86
2023/03/19 02:51:55;;;;;;;4.57;3.65;;;;;;;12.02;78.58;101009.78;5084810;28;20098;-86
2023/03/19 02:54:20;;;;;;;4.97;3.85;;;;;;;11.95;79.07;101006.56;5064945;28;20024;-85
2023/03/19 02:56:46;;;;;;;6.40;3.97;;;;;;;11.96;78.77;101005.63;5069562;28;20055;-86
2023/03/19 02:59:12;;;;;;;7.22;3.95;;;;;;;11.93;78.86;101000.44;5088200;28;20052;-86
2023/03/19 03:01:37;;;;;;;6.32;3.85;;;;;;;11.98;79.12;101009.09;5089483;28;20066;-86
2023/03/19 03:04:03;;;;;;;6.50;4.90;;;;;;;11.97;79.07;101009.13;5090632;28;20024;-85
2023/03/19 03:06:29;;;;;;;5.40;4.20;;;;;;;12.02;78.76;101015.09;5075709;28;20489;-86
2023/03/19 03:08:55;;;;;;;4.93;4.18;;;;;;;12.00;78.43;101020.47;5091234;28;20024;-85
2023/03/19 03:11:21;;;;;;;7.05;4.45;;;;;;;11.99;78.58;101009.94;5068133;28;20020;-86
2023/03/19 03:13:46;;;;;;;5.07;4.07;;;;;;;11.99;78.68;101013.44;5070666;28;20017;-85
2023/03/19 03:16:12;;;;;;;4.53;3.90;;;;;;;11.98;78.78;101018.78;5067715;28;20119;-86
2023/03/19 03:18:37;;;;;;;5.82;4.28;;;;;;;11.97;78.47;101009.97;5065500;28;20032;-86
2023/03/19 03:21:02;;;;;;;5.55;4.00;;;;;;;11.87;79.03;100999.84;5091033;28;20494;-85
2023/03/19 03:23:28;;;;;;;4.95;4.15;;;;;;;11.87;79.42;101011.31;5072898;28;20024;-86
2023/03/19 03:25:53;;;;;;;6.63;3.83;;;;;;;11.90;79.47;101005.03;5072338;28;20016;-86
2023/03/19 03:28:18;;;;;;;5.63;4.32;;;;;;;11.91;78.92;101018.19;5087657;28;20028;-86
2023/03/19 03:30:45;;;;;;;6.22;4.53;;;;;;;11.90;78.66;101023.56;5084428;28;20024;-86
2023/03/19 03:33:11;;;;;;;5.30;4.38;;;;;;;11.87;79.39;101023.69;5060371;28;20499;-86
2023/03/19 03:35:37;;;;;;;6.20;4.38;;;;;;;11.78;80.34;101019.63;5064540;28;20028;-86
2023/03/19 03:38:03;;;;;;;6.32;4.28;;;;;;;11.83;79.51;101019.44;5064135;28;20108;-86
2023/03/19 03:40:29;;;;;;;5.15;4.05;;;;;;;11.81;79.65;101016.84;5065063;28;20410;-86
2023/03/19 03:42:54;;;;;;;5.10;4.60;;;;;;;11.81;79.31;101013.34;5065203;28;20518;-86
2023/03/19 03:45:19;;;;;;;8.55;4.88;;;;;;;11.79;79.35;101010.72;5076798;28;20049;-86
2023/03/19 03:47:45;;;;;;;9.75;5.05;;;;;;;11.70;79.59;101011.13;5080763;28;20050;-86
2023/03/19 03:50:10;;;;;;;7.10;5.20;;;;;;;11.72;79.54;101017.22;5065208;28;20028;-86
2023/03/19 03:52:36;;;;;;;10.70;5.55;;;;;;;11.66;79.95;101022.78;5082636;28;20203;-86
2023/03/19 03:55:02;;;;;;;6.95;4.63;;;;;;;11.58;79.43;101024.91;5067337;28;20067;-85
2023/03/19 03:57:27;;;;;;;9.25;5.55;;;;;;;11.41;80.39;101021.13;5068808;28;20085;-85
2023/03/19 03:59:53;;;;;;;6.63;5.07;;;;;;;11.47;79.87;101026.19;5064618;28;20067;-86
2023/03/19 04:02:19;;;;;;;7.57;5.05;;;;;;;11.35;80.35;101039.06;5061613;28;20024;-85
2023/03/19 04:04:44;;;;;;;5.90;5.30;;;;;;;11.31;80.93;101029.53;5082576;28;20384;-86
2023/03/19 04:07:09;;;;;;;10.38;6.82;;;;;;;11.34;79.81;101035.56;5081665;28;20032;-86
2023/03/19 04:09:35;;;;;;;5.78;5.07;;;;;;;11.28;80.52;101046.38;5066230;28;20036;-86
2023/03/19 04:12:01;;;;;;;8.80;5.80;;;;;;;11.25;80.93;101035.94;5078519;28;20491;-86
2023/03/19 04:14:27;;;;;;;6.93;4.72;;;;;;;11.04;80.13;101005.88;5063585;28;20167;-85
2023/03/19 04:16:52;;;;;;;6.32;5.22;;;;;;;11.20;80.34;101030.81;5082875;28;20113;-86
2023/03/19 04:19:19;;;;;;;7.72;5.10;;;;;;;11.11;80.44;101023.25;5087849;28;20479;-86
2023/03/19 04:21:44;;;;;;;7.38;5.72;;;;;;;10.93;80.65;101014.22;5087479;28;20491;-85
2023/03/19 04:24:10;;;;;;;8.60;5.55;;;;;;;10.98;80.08;101027.28;5072845;28;20016;-85
2023/03/19 04:26:36;;;;;;;13.07;5.70;;;;;;;10.88;81.31;101021.50;5071575;28;20020;-86
2023/03/19 04:29:02;;;;;;;9.10;5.90;;;;;;;10.89;81.04;101028.50;5089640;28;20024;-86
2023/03/19 04:31:28;;;;;;;7.65;5.43;;;;;;;10.88;81.11;101045.28;5068705;28;20028;-85
2023/03/19 04:33:54;;;;;;;9.80;6.10;;;;;;;10.81;82.18;101030.56;5069453;28;20036;-85
2023/03/19 04:36:19;;;;;;;7.03;5.90;;;;;;;10.87;81.28;101048.00;5090279;28;20020;-86
2023/03/19 04:38:45;;;;;;;6.57;5.47;;;;;;;10.78;80.53;101043.06;5090727;28;20042;-85
2023/03/19 04:41:12;;;;;;;9.25;5.93;;;;;;;10.69;80.89;101028.41;5089560;28;20372;-85
2023/03/19 04:43:38;;;;;;;7.47;5.68;;;;;;;10.69;81.48;101039.84;5071273;28;20039;-85
2023/03/19 04:46:04;;;;;;;7.75;5.07;;;;;;;10.66;80.74;101037.28;5090208;28;20024;-85
2023/03/19 04:48:31;;;;;;;12.07;5.82;;;;;;;10.64;80.79;101033.00;5089289;28;20032;-85
2023/03/19 04:50:56;;;;;;;7.43;5.28;;;;;;;10.54;80.89;101034.25;5090424;28;20365;-85
2023/03/19 04:53:23;;;;;;;7.43;5.93;;;;;;;10.38;80.54;101021.59;5065526;28;20472;-85
2023/03/19 04:55:48;;;;;;;7.55;5.95;;;;;;;10.37;80.46;101038.38;5071174;28;20052;-85
2023/03/19 04:58:14;;;;;;;6.50;5.38;;;;;;;10.33;80.23;101039.41;5071958;28;20356;-85
2023/03/19 05:00:39;;;;;;;9.00;6.03;;;;;;;10.40;80.97;101055.91;5088656;28;21389;-85
2023/03/19 05:03:05;;;;;;;9.90;7.15;;;;;;;10.27;81.10;101044.91;5068733;28;20114;-85
2023/03/19 05:05:30;;;;;;;9.70;7.28;;;;;;;10.29;82.48;101063.34;5093471;28;20077;-85
2023/03/19 05:07:57;;;;;;;12.13;9.05;;;;;;;10.23;82.86;101059.97;5088336;28;20062;-85
2023/03/19 05:10:22;;;;;;;10.75;9.00;;;;;;;10.17;81.29;101062.84;5072525;28;20154;-85
2023/03/19 05:12:48;;;;;;;14.27;10.05;;;;;;;10.12;81.58;101061.28;5070501;28;20099;-85
2023/03/19 05:15:14;;;;;;;11.38;10.18;;;;;;;10.08;81.95;101060.53;5087295;28;20116;-85
2023/03/19 05:17:40;;;;;;;12.05;10.45;;;;;;;10.14;81.27;101070.88;5069183;28;20053;-85
2023/03/19 05:20:05;;;;;;;13.05;10.27;;;;;;;10.06;81.98;101069.41;5069993;28;20024;-85
2023/03/19 05:22:31;;;;;;;14.18;8.90;;;;;;;10.05;82.29;101065.91;5072105;28;20043;-86
2023/03/19 05:24:56;;;;;;;9.88;7.88;;;;;;;10.10;81.69;101074.53;5071452;28;20061;-86
2023/03/19 05:27:22;;;;;;;8.82;7.47;;;;;;;10.10;82.59;101071.03;5086979;28;20031;-86
2023/03/19 05:29:47;;;;;;;10.23;7.28;;;;;;;10.08;81.39;101065.81;5069285;28;20016;-85
2023/03/19 05:32:13;;;;;;;7.93;6.50;;;;;;;10.07;80.39;101069.38;5085512;28;20214;-85
2023/03/19 05:34:38;;;;;;;13.02;7.07;;;;;;;10.07;80.91;101073.75;5067672;28;20032;-85
2023/03/19 05:37:07;;;;;;;9.70;6.15;;;;;;;10.04;80.16;101076.53;5085701;28;20471;-85
2023/03/19 05:39:32;;;;;;;9.27;6.32;;;;;;;9.93;80.07;101072.47;5086514;28;20031;-85
2023/03/19 05:41:58;;;;;;;8.40;6.38;;;;;;;9.93;79.92;101084.78;5086353;28;20043;-85
2023/03/19 05:44:23;;;;;;;7.35;5.57;;;;;;;9.87;79.22;101087.66;5065554;28;20512;-85
2023/03/19 05:46:48;;;;;;;9.50;5.95;;;;;;;9.83;79.72;101081.59;5084000;28;20032;-86
2023/03/19 05:49:14;;;;;;;8.10;6.18;;;;;;;9.80;80.35;101084.34;5084913;28;21420;-86
2023/03/19 05:51:39;;;;;;;11.30;6.40;;;;;;;9.80;79.24;101083.50;5068351;28;20084;-85
2023/03/19 05:54:05;;;;;;;7.60;6.78;;;;;;;9.77;79.66;101092.38;5066260;28;20774;-85
2023/03/19 05:56:31;;;;;;;9.68;5.78;;;;;;;9.74;79.02;101092.47;5085973;28;20039;-85
2023/03/19 05:58:56;;;;;;;8.25;6.10;;;;;;;9.73;79.77;101092.50;5083264;28;20039;-85
2023/03/19 06:01:21;;;;;;;7.85;6.25;;;;;;;9.78;79.65;101098.50;5084504;28;20107;-85
2023/03/19 06:03:47;;;;;;;8.95;5.63;;;;;;;9.77;79.30;101099.44;5086162;28;20027;-85
2023/03/19 06:06:12;;;;;;;8.10;6.03;;;;;;;9.76;79.41;101106.50;5084385;28;21456;-85
2023/03/19 06:08:38;;;;;;;6.93;5.95;;;;;;;9.73;79.75;101090.75;5070516;28;20027;-85
2023/03/19 06:11:04;;;;;;;9.15;6.15;;;;;;;9.77;80.33;101097.66;5083837;28;20026;-86
2023/03/19 06:13:29;;;;;;;9.85;7.35;;;;;;;9.75;81.32;101093.34;5084155;28;20121;-85
2023/03/19 06:15:55;;;;;;;11.82;7.10;;;;;;;9.83;82.18;101121.19;5086805;28;20063;-85
2023/03/19 06:18:20;;;;;;;9.63;6.63;;;;;;;9.74;82.41;101113.56;5068231;28;20573;-85
2023/03/19 06:20:47;;;;;;;11.70;7.00;;;;;;;9.79;81.70;101119.59;5063767;28;20453;-86
2023/03/19 06:23:12;;;;;;;10.77;7.25;;;;;;;9.77;82.22;101115.28;5065794;28;20115;-85
2023/03/19 06:25:37;;;;;;;12.75;8.50;;;;;;;9.84;83.40;101125.59;5066513;28;20562;-85
2023/03/19 06:28:04;;;;;;;10.82;7.65;;;;;;;9.86;83.36;101133.47;5085193;28;20082;-85
2023/03/19 06:30:29;;;;;;;12.48;8.18;;;;;;;9.88;83.94;101126.34;5066604;28;20028;-85
2023/03/19 06:32:55;;;;;;;11.45;7.95;;;;;;;9.90;81.98;101116.59;5067094;28;20054;-85
2023/03/19 06:35:20;;;;;;;13.38;9.00;;;;;;;10.06;83.61;101132.78;5066229;28;20020;-85
2023/03/19 06:37:46;;;;;;;12.20;8.32;;;;;;;10.11;82.78;101123.78;5065711;28;20059;-85
2023/03/19 06:40:11;;;;;;;13.20;9.27;;;;;;;10.21;83.23;101135.81;5086826;28;20028;-85
2023/03/19 06:42:37;;;;;;;17.65;10.18;;;;;;;10.31;85.32;101139.03;5084319;28;20055;-86
2023/03/19 06:45:02;;;;;;;15.02;10.60;;;;;;;10.39;84.81;101136.09;5064895;28;20221;-86
2023/03/19 06:47:28;;;;;;;19.60;11.40;;;;;;;10.41;84.85;101137.78;5064691;28;20023;-85
2023/03/19 06:49:53;;;;;;;15.70;11.63;;;;;;;10.44;84.75;101147.38;5082661;28;20531;-85
2023/03/19 06:52:21;;;;;;;16.30;11.55;;;;;;;10.40;85.43;101149.28;5065948;28;20023;-86
2023/03/19 06:54:47;;;;;;;14.45;11.30;;;;;;;10.50;84.61;101151.63;5082426;28;20032;-85
2023/03/19 06:57:12;;;;;;;17.15;12.48;;;;;;;10.53;85.03;101149.69;5065922;28;20032;-85
2023/03/19 06:59:37;;;;;;;18.25;11.57;;;;;;;10.55;85.01;101147.88;5064857;28;20024;-85
2023/03/19 07:02:03;;;;;;;14.63;10.63;;;;;;;10.55;84.58;101139.94;5091538;28;20032;-85
2023/03/19 07:04:29;;;;;;;15.63;10.88;;;;;;;10.64;84.87;101154.63;5071946;28;20527;-85
2023/03/19 07:06:54;;;;;;;13.02;9.45;;;;;;;10.80;83.24;101153.16;5089322;28;20482;-85
2023/03/19 07:09:19;;;;;;;14.52;10.48;;;;;;;10.91;84.09;101158.03;5072451;28;20135;-86
2023/03/19 07:11:45;;;;;;;15.73;9.75;;;;;;;10.93;84.21;101157.09;5075977;28;20072;-85
2023/03/19 07:14:10;;;;;;;16.38;10.10;;;;;;;11.06;83.73;101159.28;5090137;28;20012;-85
2023/03/19 07:16:35;;;;;;;14.25;9.60;;;;;;;11.19;83.40;101166.72;5072861;28;20193;-85
2023/03/19 07:19:01;;;;;;;13.18;9.45;;;;;;;11.12;83.41;101157.25;5067372;28;20020;-86
2023/03/19 07:21:26;;;;;;;14.13;9.60;;;;;;;11.26;83.28;101177.06;5076499;28;20031;-86
2023/03/19 07:23:51;;;;;;;14.25;9.70;;;;;;;11.26;82.99;101169.13;5076840;28;20467;-86
2023/03/19 07:26:17;;;;;;;13.52;9.02;;;;;;;11.37;82.18;101177.50;5071879;28;20028;-86
2023/03/19 07:28:42;;;;;;;17.27;9.75;;;;;;;11.52;82.36;101186.63;5081731;28;20377;-86
2023/03/19 07:31:08;;;;;;;11.88;8.48;;;;;;;11.63;82.01;101195.06;5064455;28;20105;-86
2023/03/19 07:33:33;;;;;;;14.70;9.50;;;;;;;11.67;81.25;101188.72;5084101;28;20452;-86
2023/03/19 07:35:59;;;;;;;14.07;10.02;;;;;;;11.72;80.78;101187.59;5063933;28;20024;-86
2023/03/19 07:38:24;;;;;;;14.35;8.48;;;;;;;11.81;80.63;101188.16;5065234;28;20050;-86
2023/03/19 07:40:50;;;;;;;14.45;9.63;;;;;;;11.98;80.53;101198.97;5084116;28;20054;-86
2023/03/19 07:43:15;;;;;;;14.02;10.98;;;;;;;11.88;80.25;101192.31;5064399;28;20051;-86
2023/03/19 07:45:41;;;;;;;13.38;8.40;;;;;;;12.09;79.90;101186.16;5081984;28;20066;-85
2023/03/19 07:48:06;;;;;;;13.77;9.23;;;;;;;12.12;78.92;101193.13;5064058;28;20114;-86
2023/03/19 07:50:32;;;;;;;12.93;8.98;;;;;;;12.11;78.75;101183.44;5064589;28;20488;-86
2023/03/19 07:52:57;;;;;;;14.63;7.93;;;;;;;12.02;77.43;101192.63;5081435;28;20360;-86
2023/03/19 07:55:23;;;;;;;10.63;5.60;;;;;;;12.07;77.23;101192.44;5080990;28;20045;-85
2023/03/19 07:57:48;;;;;;;11.02;6.70;;;;;;;12.21;77.30;101188.28;5079194;28;20619;-86
2023/03/19 08:00:14;;;;;;;10.77;6.28;;;;;;;12.29;77.02;101200.38;5079345;28;20050;-86
2023/03/19 08:02:41;;;;;;;14.02;6.75;;;;;;;12.61;75.86;101207.00;5064567;28;20024;-86
2023/03/19 08:05:07;;;;;;;14.00;6.88;;;;;;;12.93;75.45;101209.09;5081246;28;20028;-85
2023/03/19 08:07:32;;;;;;;10.95;6.75;;;;;;;13.31;74.12;101203.91;5081436;28;20085;-85
2023/03/19 08:09:58;;;;;;;8.45;6.32;;;;;;;13.51;72.28;101200.31;5066579;28;20115;-86
2023/03/19 08:12:24;;;;;;;10.95;6.72;;;;;;;13.63;72.37;101212.19;5076357;28;20036;-86
2023/03/19 08:14:49;;;;;;;14.18;6.55;;;;;;;13.52;71.80;101207.34;5081780;28;20059;-85
2023/03/19 08:17:16;;;;;;;13.00;6.57;;;;;;;13.63;70.78;101213.03;5066114;28;20074;-85
2023/03/19 08:19:41;;;;;;;11.93;5.43;;;;;;;13.77;69.90;101207.06;5091515;28;20364;-85
2023/03/19 08:22:07;;;;;;;11.77;5.20;;;;;;;13.97;69.61;101217.59;5087667;28;20027;-85
2023/03/19 08:24:32;;;;;;;12.15;4.70;;;;;;;13.93;67.77;101224.00;5079713;28;20042;-85
2023/03/19 08:26:58;;;;;;;10.40;4.45;;;;;;;13.82;67.98;101226.31;5083999;28;20540;-85
2023/03/19 08:29:26;;;;;;;12.07;5.00;;;;;;;13.86;68.12;101230.56;5082694;28;20026;-85
2023/03/19 08:31:52;;;;;;;12.32;5.18;;;;;;;13.86;67.94;101227.91;5090794;28;20480;-87
2023/03/19 08:34:20;;;;;;;12.15;5.43;;;;;;;13.98;68.30;101223.78;5089446;28;20020;-86
2023/03/19 08:36:46;;;;;;;15.07;6.20;;;;;;;13.85;68.62;101233.25;5085729;28;20038;-86
2023/03/19 08:39:11;;;;;;;8.23;4.90;;;;;;;14.15;67.76;101239.78;5075813;28;20024;-87
2023/03/19 08:41:36;;;;;;;13.18;5.88;;;;;;;14.37;66.34;101228.09;5067851;28;20047;-87
2023/03/19 08:44:02;;;;;;;11.30;5.90;;;;;;;14.82;65.60;101232.03;5086577;28;20027;-87
2023/03/19 08:46:28;;;;;;;12.85;5.95;;;;;;;15.16;63.93;101233.81;5087486;28;20035;-86
2023/03/19 08:48:53;;;;;;;12.50;4.95;;;;;;;15.23;63.88;101233.41;5061682;28;20111;-86
2023/03/19 08:51:19;;;;;;;8.75;4.63;;;;;;;15.73;62.87;101232.50;5089549;28;20023;-86
2023/03/19 08:53:44;;;;;;;11.02;4.68;;;;;;;15.98;61.66;101247.13;5082168;28;20077;-86
2023/03/19 08:56:09;;;;;;;12.48;5.40;;;;;;;16.15;61.12;101240.84;5088515;28;20093;-86
2023/03/19 08:58:35;;;;;;;15.60;4.60;;;;;;;16.48;59.52;101249.56;5087562;28;20392;-86
2023/03/19 09:01:04;;;;;;;13.73;4.47;;;;;;;16.62;57.99;101255.91;5068748;28;20499;-86
2023/03/19 09:03:30;;;;;;;11.52;4.47;;;;;;;16.58;58.39;101244.53;5087954;28;20039;-87
2023/03/19 09:06:00;;;;;;;12.45;4.80;;;;;;;17.18;57.51;101259.69;5081843;28;20024;-87
2023/03/19 09:08:27;;;;;;;10.10;4.53;;;;;;;16.98;57.35;101253.75;5082158;28;20032;-87
2023/03/19 09:10:53;;;;;;;8.15;4.50;;;;;;;16.94;57.10;101252.22;5074179;28;20035;-87
2023/03/19 09:13:18;;;;;;;11.02;4.93;;;;;;;16.66;57.72;101262.78;5063307;28;20028;-87
2023/03/19 09:15:43;;;;;;;8.75;4.80;;;;;;;16.49;59.25;101266.44;5072832;28;20020;-87
2023/03/19 09:18:09;;;;;;;10.57;4.90;;;;;;;16.22;59.06;101263.53;5086648;28;20356;-87
2023/03/19 09:20:34;;;;;;;11.73;4.88;;;;;;;16.00;59.54;101272.78;5090483;28;20035;-88
2023/03/19 09:23:00;;;;;;;8.95;4.93;;;;;;;15.72;60.02;101270.78;5066581;28;20156;-88
2023/03/19 09:25:25;;;;;;;9.73;4.00;;;;;;;15.60;60.88;101274.06;5067031;28;20705;-88
2023/03/19 09:27:50;;;;;;;12.40;5.00;;;;;;;15.59;60.55;101274.16;5086787;28;20479;-85
2023/03/19 09:30:16;;;;;;;6.50;4.28;;;;;;;15.81;59.12;101274.75;5089251;28;20035;-88
2023/03/19 09:32:42;;;;;;;10.98;5.05;;;;;;;16.49;57.36;101277.97;5092527;28;20028;-88
2023/03/19 09:35:07;;;;;;;12.95;4.68;;;;;;;16.45;57.75;101275.56;5084631;28;20024;-88
2023/03/19 09:37:33;;;;;;;12.13;4.82;;;;;;;17.51;55.44;101279.00;5090162;28;20521;-88
2023/03/19 09:39:58;;;;;;;11.40;4.60;;;;;;;17.67;54.48;101286.91;5067900;28;20494;-88
2023/03/19 09:42:38;;;;;;;13.35;4.63;;;;;;;17.37;56.01;101297.69;5068674;28;20136;-88
2023/03/19 09:45:11;;;;;;;14.55;4.57;;;;;;;17.31;54.72;101301.63;5084485;28;20020;-88
2023/03/19 09:47:38;;;;;;;13.60;5.18;;;;;;;17.17;56.60;101303.41;5082594;28;20107;-88
2023/03/19 09:50:16;;;;;;;11.40;5.15;;;;;;;17.06;55.54;101307.56;5086811;28;20487;-88
2023/03/19 09:52:44;;;;;;;9.98;4.78;;;;;;;17.80;54.49;101300.41;5083157;28;20028;-88
2023/03/19 09:55:28;;;;;;;7.68;4.05;;;;;;;17.99;53.17;101305.44;5065133;28;20075;-88
2023/03/19 09:57:56;;;;;;;10.70;4.63;;;;;;;17.44;54.95;101303.50;5088728;28;20024;-88
2023/03/19 10:00:31;;;;;;;10.68;4.30;;;;;;;19.06;50.06;101303.75;5067132;28;20115;-88
2023/03/19 10:03:20;;;;;;;9.73;4.22;;;;;;;20.54;47.30;101300.38;5085967;28;20023;-87
2023/03/19 10:06:30;;;;;;;7.70;3.83;;;;;;;22.36;45.78;101297.69;5082531;28;20035;-88
2023/03/19 10:09:26;;;;;;;10.27;3.83;;;;;;;23.42;42.61;101291.47;5042902;28;20125;-88
2023/03/19 10:12:03;;;;;;;11.18;4.22;;;;;;;23.06;41.55;101304.44;5086371;28;20032;-88
2023/03/19 10:14:28;;;;;;;11.38;3.45;;;;;;;22.96;38.90;101305.34;5084067;28;20028;-86
2023/03/19 10:16:57;;;;;;;9.23;4.20;;;;;;;22.94;41.22;101289.28;5088508;28;20368;-85
2023/03/19 10:19:38;;;;;;;11.38;4.25;;;;;;;24.02;39.58;101297.00;5084165;28;20544;-86
2023/03/19 10:22:11;;;;;;;13.48;4.15;;;;;;;25.38;37.62;101304.19;5074788;28;20088;-86
2023/03/19 10:24:39;;;;;;;8.75;3.92;;;;;;;24.01;37.80;101301.53;5073355;28;20085;-86
2023/03/19 10:27:13;;;;;;;8.18;3.92;;;;;;;21.99;41.71;101307.03;5088724;28;20024;-86
2023/03/19 10:29:40;;;;;;;10.50;4.22;;;;;;;21.54;44.09;101301.66;5087644;28;20417;-87
2023/03/19 10:32:44;;;;;;;12.27;4.35;;;;;;;22.66;41.73;101305.09;5068732;28;20502;-88
2023/03/19 10:35:23;;;;;;;9.63;4.13;;;;;;;23.25;40.20;101294.75;5083210;28;20048;-88
2023/03/19 10:37:54;;;;;;;11.27;5.50;;;;;;;23.78;39.51;101311.69;5087779;28;20283;-88
2023/03/19 10:40:43;;;;;;;11.05;4.55;;;;;;;23.71;40.62;101302.41;5069647;28;20028;-88
2023/03/19 10:43:22;;;;;;;14.52;8.88;;;;;;;21.82;43.04;101301.19;5067037;28;20110;-89
2023/03/19 10:45:48;;;;;;;18.88;10.77;;;;;;;20.68;44.30;101302.88;5068815;28;20135;-90
2023/03/19 10:48:17;;;;;;;12.20;5.38;;;;;;;19.72;47.33;101318.81;5067324;28;20618;-88
2023/03/19 10:50:51;;;;;;;9.65;4.10;;;;;;;19.52;48.22;101322.00;5070766;28;20532;-88
2023/03/19 10:53:17;;;;;;;10.38;4.07;;;;;;;19.44;48.12;101316.31;5069774;28;20491;-88
2023/03/19 10:55:56;;;;;;;9.03;3.73;;;;;;;19.01;50.58;101321.97;5071259;28;20062;-88
2023/03/19 10:58:25;;;;;;;9.30;3.72;;;;;;;18.66;50.03;101327.00;5087387;28;20801;-88
2023/03/19 11:00:57;;;;;;;10.55;3.53;;;;;;;18.57;50.81;101325.78;5061218;28;20442;-89
2023/03/19 11:03:32;;;;;;;8.50;3.30;;;;;;;18.23;51.21;101329.78;5069999;28;20021;-88
2023/03/19 11:06:23;;;;;;;10.95;3.50;;;;;;;18.11;52.77;101331.44;5069170;28;20086;-89
2023/03/19 11:09:01;;;;;;;11.98;3.30;;;;;;;17.82;52.35;101315.41;5080923;28;20162;-89
2023/03/19 11:11:42;;;;;;;9.40;3.42;;;;;;;18.17;52.34;101333.69;5081366;28;20495;-88
2023/03/19 11:14:14;;;;;;;8.13;3.50;;;;;;;18.16;51.66;101333.81;5071866;28;20503;-88
2023/03/19 11:17:05;;;;;;;10.45;3.30;;;;;;;18.14;52.59;101316.97;5088956;28;20296;-89
2023/03/19 11:19:37;;;;;;;12.02;4.47;;;;;;;17.84;52.66;101329.53;5044397;28;20373;-88
2023/03/19 11:22:26;;;;;;;12.65;4.13;;;;;;;17.93;53.73;101327.25;5085845;28;20598;-88
2023/03/19 11:24:59;;;;;;;8.73;3.33;;;;;;;18.03;53.28;101329.22;5072299;28;20027;-89